sensor_id;sensor_type;location;lat;lon;timestamp;P1;durP1;ratioP1;P2;durP2;ratioP2
10725;SDS011;5414;59.782;16.378;2022-09-28T00:02:02;13.07;;;11.83;;
10725;SDS011;5414;59.782;16.378;2022-09-28T00:04:28;12.97;;;11.77;;
10725;SDS011;5414;59.782;16.378;2022-09-28T00:06:54;13.33;;;12.07;;
10725;SDS011;5414;59.782;16.378;2022-09-28T00:09:20;12.90;;;11.60;;
10725;SDS011;5414;59.782;16.378;2022-09-28T00:11:46;12.70;;;11.60;;
10725;SDS011;5414;59.782;16.378;2022-09-28T00:14:12;12.00;;;10.80;;
10725;SDS011;5414;59.782;16.378;2022-09-28T00:16:40;13.63;;;12.33;;
10725;SDS011;5414;59.782;16.378;2022-09-28T00:19:07;13.40;;;12.13;;
10725;SDS011;5414;59.782;16.378;2022-09-28T00:21:35;13.33;;;12.03;;
10725;SDS011;5414;59.782;16.378;2022-09-28T00:24:02;12.97;;;11.77;;
10725;SDS011;5414;59.782;16.378;2022-09-28T00:26:45;13.33;;;11.93;;
10725;SDS011;5414;59.782;16.378;2022-09-28T00:29:13;11.97;;;10.93;;
10725;SDS011;5414;59.782;16.378;2022-09-28T00:31:41;13.17;;;11.87;;
10725;SDS011;5414;59.782;16.378;2022-09-28T00:34:07;12.77;;;11.60;;
10725;SDS011;5414;59.782;16.378;2022-09-28T00:36:33;17.67;;;11.93;;
10725;SDS011;5414;59.782;16.378;2022-09-28T00:39:08;11.83;;;10.73;;
10725;SDS011;5414;59.782;16.378;2022-09-28T00:41:35;11.90;;;10.70;;
10725;SDS011;5414;59.782;16.378;2022-09-28T00:46:46;12.10;;;10.90;;
10725;SDS011;5414;59.782;16.378;2022-09-28T00:49:14;12.57;;;11.37;;
10725;SDS011;5414;59.782;16.378;2022-09-28T00:51:41;13.53;;;12.27;;
10725;SDS011;5414;59.782;16.378;2022-09-28T00:54:08;13.00;;;11.70;;
10725;SDS011;5414;59.782;16.378;2022-09-28T00:56:35;13.10;;;11.80;;
10725;SDS011;5414;59.782;16.378;2022-09-28T00:59:02;12.33;;;11.03;;
10725;SDS011;5414;59.782;16.378;2022-09-28T01:01:29;13.27;;;11.87;;
10725;SDS011;5414;59.782;16.378;2022-09-28T01:03:56;12.33;;;11.13;;
10725;SDS011;5414;59.782;16.378;2022-09-28T01:06:27;12.23;;;11.03;;
10725;SDS011;5414;59.782;16.378;2022-09-28T01:08:56;12.50;;;11.30;;
10725;SDS011;5414;59.782;16.378;2022-09-28T01:11:24;11.97;;;10.87;;
10725;SDS011;5414;59.782;16.378;2022-09-28T01:13:51;12.03;;;10.93;;
10725;SDS011;5414;59.782;16.378;2022-09-28T01:29:36;13.00;;;11.63;;
10725;SDS011;5414;59.782;16.378;2022-09-28T01:32:14;12.43;;;11.23;;
10725;SDS011;5414;59.782;16.378;2022-09-28T01:35:04;12.50;;;11.30;;
10725;SDS011;5414;59.782;16.378;2022-09-28T01:37:50;11.77;;;10.63;;
10725;SDS011;5414;59.782;16.378;2022-09-28T01:40:16;13.30;;;12.00;;
10725;SDS011;5414;59.782;16.378;2022-09-28T01:42:44;12.17;;;11.07;;
10725;SDS011;5414;59.782;16.378;2022-09-28T01:45:27;11.80;;;10.60;;
10725;SDS011;5414;59.782;16.378;2022-09-28T01:47:55;11.70;;;10.57;;
10725;SDS011;5414;59.782;16.378;2022-09-28T01:50:23;12.03;;;10.83;;
10725;SDS011;5414;59.782;16.378;2022-09-28T01:52:54;12.63;;;10.90;;
10725;SDS011;5414;59.782;16.378;2022-09-28T01:55:30;12.10;;;11.00;;
10725;SDS011;5414;59.782;16.378;2022-09-28T01:58:00;11.83;;;10.70;;
10725;SDS011;5414;59.782;16.378;2022-09-28T02:00:27;12.70;;;11.50;;
10725;SDS011;5414;59.782;16.378;2022-09-28T02:05:32;11.40;;;10.40;;
10725;SDS011;5414;59.782;16.378;2022-09-28T02:08:08;11.67;;;10.67;;
10725;SDS011;5414;59.782;16.378;2022-09-28T02:10:50;11.60;;;10.50;;
10725;SDS011;5414;59.782;16.378;2022-09-28T02:13:19;12.77;;;10.20;;
10725;SDS011;5414;59.782;16.378;2022-09-28T02:18:13;11.20;;;10.10;;
10725;SDS011;5414;59.782;16.378;2022-09-28T02:20:41;11.37;;;10.30;;
10725;SDS011;5414;59.782;16.378;2022-09-28T02:23:11;11.70;;;10.50;;
10725;SDS011;5414;59.782;16.378;2022-09-28T02:25:49;10.77;;;9.70;;
10725;SDS011;5414;59.782;16.378;2022-09-28T02:28:17;13.30;;;11.87;;
10725;SDS011;5414;59.782;16.378;2022-09-28T02:30:43;11.17;;;10.07;;
10725;SDS011;5414;59.782;16.378;2022-09-28T02:35:36;12.10;;;10.50;;
10725;SDS011;5414;59.782;16.378;2022-09-28T02:38:03;11.37;;;10.17;;
10725;SDS011;5414;59.782;16.378;2022-09-28T02:40:33;10.87;;;9.77;;
10725;SDS011;5414;59.782;16.378;2022-09-28T02:51:29;13.53;;;10.63;;
10725;SDS011;5414;59.782;16.378;2022-09-28T02:56:46;11.83;;;10.67;;
10725;SDS011;5414;59.782;16.378;2022-09-28T02:59:29;11.47;;;10.47;;
10725;SDS011;5414;59.782;16.378;2022-09-28T03:04:44;11.83;;;10.67;;
10725;SDS011;5414;59.782;16.378;2022-09-28T03:09:53;11.07;;;9.97;;
10725;SDS011;5414;59.782;16.378;2022-09-28T03:12:21;10.93;;;9.87;;
10725;SDS011;5414;59.782;16.378;2022-09-28T03:15:03;10.77;;;9.77;;
10725;SDS011;5414;59.782;16.378;2022-09-28T03:17:30;12.10;;;10.20;;
10725;SDS011;5414;59.782;16.378;2022-09-28T03:19:56;10.77;;;9.77;;
10725;SDS011;5414;59.782;16.378;2022-09-28T03:22:22;11.57;;;10.37;;
10725;SDS011;5414;59.782;16.378;2022-09-28T03:24:48;10.70;;;9.63;;
10725;SDS011;5414;59.782;16.378;2022-09-28T03:27:14;10.37;;;9.30;;
10725;SDS011;5414;59.782;16.378;2022-09-28T03:29:40;12.20;;;9.60;;
10725;SDS011;5414;59.782;16.378;2022-09-28T03:32:06;10.30;;;8.77;;
10725;SDS011;5414;59.782;16.378;2022-09-28T03:34:32;10.73;;;9.73;;
10725;SDS011;5414;59.782;16.378;2022-09-28T03:36:59;9.97;;;9.03;;
10725;SDS011;5414;59.782;16.378;2022-09-28T03:39:25;10.53;;;9.17;;
10725;SDS011;5414;59.782;16.378;2022-09-28T03:41:51;11.60;;;9.13;;
10725;SDS011;5414;59.782;16.378;2022-09-28T03:44:17;9.17;;;8.27;;
10725;SDS011;5414;59.782;16.378;2022-09-28T03:46:43;9.37;;;8.47;;
10725;SDS011;5414;59.782;16.378;2022-09-28T03:49:11;9.93;;;9.03;;
10725;SDS011;5414;59.782;16.378;2022-09-28T03:51:37;9.37;;;8.47;;
10725;SDS011;5414;59.782;16.378;2022-09-28T03:54:03;10.03;;;9.00;;
10725;SDS011;5414;59.782;16.378;2022-09-28T03:56:29;9.53;;;8.47;;
10725;SDS011;5414;59.782;16.378;2022-09-28T03:58:55;10.60;;;9.27;;
10725;SDS011;5414;59.782;16.378;2022-09-28T04:01:21;9.87;;;8.90;;
10725;SDS011;5414;59.782;16.378;2022-09-28T04:03:51;10.70;;;8.90;;
10725;SDS011;5414;59.782;16.378;2022-09-28T04:06:19;9.27;;;8.37;;
10725;SDS011;5414;59.782;16.378;2022-09-28T04:08:45;9.80;;;8.87;;
10725;SDS011;5414;59.782;16.378;2022-09-28T04:11:11;12.10;;;9.90;;
10725;SDS011;5414;59.782;16.378;2022-09-28T04:13:37;12.23;;;9.90;;
10725;SDS011;5414;59.782;16.378;2022-09-28T04:16:03;10.07;;;9.03;;
10725;SDS011;5414;59.782;16.378;2022-09-28T04:18:30;11.97;;;10.67;;
10725;SDS011;5414;59.782;16.378;2022-09-28T04:21:06;10.23;;;9.33;;
10725;SDS011;5414;59.782;16.378;2022-09-28T04:23:33;10.17;;;8.77;;
10725;SDS011;5414;59.782;16.378;2022-09-28T04:25:59;11.10;;;10.00;;
10725;SDS011;5414;59.782;16.378;2022-09-28T04:28:25;11.53;;;9.10;;
10725;SDS011;5414;59.782;16.378;2022-09-28T04:31:12;10.43;;;9.47;;
10725;SDS011;5414;59.782;16.378;2022-09-28T04:33:39;10.30;;;9.07;;
10725;SDS011;5414;59.782;16.378;2022-09-28T04:36:05;10.97;;;9.87;;
10725;SDS011;5414;59.782;16.378;2022-09-28T04:38:31;11.33;;;9.60;;
10725;SDS011;5414;59.782;16.378;2022-09-28T04:40:57;10.10;;;9.20;;
10725;SDS011;5414;59.782;16.378;2022-09-28T04:43:23;9.83;;;8.83;;
10725;SDS011;5414;59.782;16.378;2022-09-28T04:45:49;9.20;;;8.30;;
10725;SDS011;5414;59.782;16.378;2022-09-28T04:48:15;9.80;;;8.73;;
10725;SDS011;5414;59.782;16.378;2022-09-28T04:50:41;9.80;;;8.80;;
10725;SDS011;5414;59.782;16.378;2022-09-28T04:53:07;9.97;;;8.80;;
10725;SDS011;5414;59.782;16.378;2022-09-28T04:55:33;9.30;;;8.33;;
10725;SDS011;5414;59.782;16.378;2022-09-28T04:58:00;10.33;;;8.43;;
10725;SDS011;5414;59.782;16.378;2022-09-28T05:00:30;8.93;;;8.00;;
10725;SDS011;5414;59.782;16.378;2022-09-28T05:03:00;10.20;;;8.77;;
10725;SDS011;5414;59.782;16.378;2022-09-28T05:05:26;10.03;;;9.03;;
10725;SDS011;5414;59.782;16.378;2022-09-28T05:07:55;10.50;;;9.40;;
10725;SDS011;5414;59.782;16.378;2022-09-28T05:10:21;11.57;;;9.43;;
10725;SDS011;5414;59.782;16.378;2022-09-28T05:12:48;9.97;;;8.97;;
10725;SDS011;5414;59.782;16.378;2022-09-28T05:15:14;8.87;;;8.07;;
10725;SDS011;5414;59.782;16.378;2022-09-28T05:17:40;9.30;;;8.40;;
10725;SDS011;5414;59.782;16.378;2022-09-28T05:20:06;9.77;;;8.77;;
10725;SDS011;5414;59.782;16.378;2022-09-28T05:22:33;9.80;;;8.90;;
10725;SDS011;5414;59.782;16.378;2022-09-28T05:24:59;9.47;;;8.27;;
10725;SDS011;5414;59.782;16.378;2022-09-28T05:27:26;8.90;;;8.10;;
10725;SDS011;5414;59.782;16.378;2022-09-28T05:29:52;10.60;;;8.33;;
10725;SDS011;5414;59.782;16.378;2022-09-28T05:32:18;9.53;;;8.53;;
10725;SDS011;5414;59.782;16.378;2022-09-28T05:34:44;17.03;;;13.67;;
10725;SDS011;5414;59.782;16.378;2022-09-28T05:37:10;9.03;;;8.13;;
10725;SDS011;5414;59.782;16.378;2022-09-28T05:39:36;8.53;;;7.73;;
10725;SDS011;5414;59.782;16.378;2022-09-28T05:42:02;8.47;;;7.77;;
10725;SDS011;5414;59.782;16.378;2022-09-28T05:44:28;8.50;;;7.80;;
10725;SDS011;5414;59.782;16.378;2022-09-28T05:46:54;8.47;;;7.53;;
10725;SDS011;5414;59.782;16.378;2022-09-28T05:49:20;8.10;;;7.37;;
10725;SDS011;5414;59.782;16.378;2022-09-28T05:51:46;7.93;;;7.23;;
10725;SDS011;5414;59.782;16.378;2022-09-28T05:54:12;8.97;;;8.07;;
10725;SDS011;5414;59.782;16.378;2022-09-28T05:56:38;9.27;;;7.90;;
10725;SDS011;5414;59.782;16.378;2022-09-28T05:59:04;8.63;;;7.80;;
10725;SDS011;5414;59.782;16.378;2022-09-28T06:01:30;8.20;;;7.40;;
10725;SDS011;5414;59.782;16.378;2022-09-28T06:03:56;8.53;;;6.93;;
10725;SDS011;5414;59.782;16.378;2022-09-28T06:06:22;8.03;;;7.23;;
10725;SDS011;5414;59.782;16.378;2022-09-28T06:08:48;7.67;;;6.97;;
10725;SDS011;5414;59.782;16.378;2022-09-28T06:11:14;7.60;;;6.90;;
10725;SDS011;5414;59.782;16.378;2022-09-28T06:13:40;7.57;;;6.87;;
10725;SDS011;5414;59.782;16.378;2022-09-28T06:16:07;8.87;;;6.60;;
10725;SDS011;5414;59.782;16.378;2022-09-28T06:18:34;7.97;;;7.27;;
10725;SDS011;5414;59.782;16.378;2022-09-28T06:21:00;7.47;;;6.53;;
10725;SDS011;5414;59.782;16.378;2022-09-28T06:23:26;6.90;;;6.17;;
10725;SDS011;5414;59.782;16.378;2022-09-28T06:25:52;6.87;;;6.03;;
10725;SDS011;5414;59.782;16.378;2022-09-28T06:28:19;6.67;;;5.83;;
10725;SDS011;5414;59.782;16.378;2022-09-28T06:30:45;6.57;;;6.00;;
10725;SDS011;5414;59.782;16.378;2022-09-28T06:33:12;6.40;;;5.80;;
10725;SDS011;5414;59.782;16.378;2022-09-28T06:35:40;6.50;;;5.80;;
10725;SDS011;5414;59.782;16.378;2022-09-28T06:38:06;6.67;;;6.07;;
10725;SDS011;5414;59.782;16.378;2022-09-28T06:40:32;7.37;;;5.47;;
10725;SDS011;5414;59.782;16.378;2022-09-28T06:43:05;6.60;;;6.00;;
10725;SDS011;5414;59.782;16.378;2022-09-28T06:45:34;6.70;;;5.77;;
10725;SDS011;5414;59.782;16.378;2022-09-28T06:48:02;6.00;;;5.20;;
10725;SDS011;5414;59.782;16.378;2022-09-28T06:50:33;5.70;;;5.07;;
10725;SDS011;5414;59.782;16.378;2022-09-28T06:53:01;5.40;;;4.80;;
10725;SDS011;5414;59.782;16.378;2022-09-28T06:55:27;5.37;;;4.63;;
10725;SDS011;5414;59.782;16.378;2022-09-28T06:58:00;6.40;;;5.20;;
10725;SDS011;5414;59.782;16.378;2022-09-28T07:00:27;5.00;;;4.50;;
10725;SDS011;5414;59.782;16.378;2022-09-28T07:02:55;4.60;;;4.20;;
10725;SDS011;5414;59.782;16.378;2022-09-28T07:05:21;7.30;;;4.87;;
10725;SDS011;5414;59.782;16.378;2022-09-28T07:07:51;4.23;;;3.83;;
10725;SDS011;5414;59.782;16.378;2022-09-28T07:10:19;4.70;;;4.20;;
10725;SDS011;5414;59.782;16.378;2022-09-28T07:12:47;4.77;;;4.37;;
10725;SDS011;5414;59.782;16.378;2022-09-28T07:15:13;4.67;;;4.27;;
10725;SDS011;5414;59.782;16.378;2022-09-28T07:17:39;6.13;;;4.30;;
10725;SDS011;5414;59.782;16.378;2022-09-28T07:20:05;5.27;;;4.40;;
10725;SDS011;5414;59.782;16.378;2022-09-28T07:22:31;4.70;;;4.30;;
10725;SDS011;5414;59.782;16.378;2022-09-28T07:24:58;5.73;;;4.43;;
10725;SDS011;5414;59.782;16.378;2022-09-28T07:27:25;5.30;;;4.10;;
10725;SDS011;5414;59.782;16.378;2022-09-28T07:29:51;4.43;;;4.03;;
10725;SDS011;5414;59.782;16.378;2022-09-28T07:32:18;6.53;;;4.47;;
10725;SDS011;5414;59.782;16.378;2022-09-28T07:34:44;4.07;;;3.77;;
10725;SDS011;5414;59.782;16.378;2022-09-28T07:37:12;5.60;;;3.83;;
10725;SDS011;5414;59.782;16.378;2022-09-28T07:39:38;4.70;;;4.10;;
10725;SDS011;5414;59.782;16.378;2022-09-28T07:42:24;4.40;;;4.00;;
10725;SDS011;5414;59.782;16.378;2022-09-28T07:44:57;4.00;;;3.63;;
10725;SDS011;5414;59.782;16.378;2022-09-28T07:47:23;6.93;;;4.03;;
10725;SDS011;5414;59.782;16.378;2022-09-28T07:49:53;4.27;;;3.93;;
10725;SDS011;5414;59.782;16.378;2022-09-28T07:52:21;4.37;;;3.90;;
10725;SDS011;5414;59.782;16.378;2022-09-28T07:54:49;6.07;;;3.40;;
10725;SDS011;5414;59.782;16.378;2022-09-28T07:57:17;4.13;;;3.70;;
10725;SDS011;5414;59.782;16.378;2022-09-28T07:59:43;4.20;;;3.57;;
10725;SDS011;5414;59.782;16.378;2022-09-28T08:02:10;3.97;;;3.57;;
10725;SDS011;5414;59.782;16.378;2022-09-28T08:04:36;4.77;;;3.63;;
10725;SDS011;5414;59.782;16.378;2022-09-28T08:07:02;4.87;;;3.60;;
10725;SDS011;5414;59.782;16.378;2022-09-28T08:09:28;6.53;;;3.17;;
10725;SDS011;5414;59.782;16.378;2022-09-28T08:11:54;4.60;;;3.40;;
10725;SDS011;5414;59.782;16.378;2022-09-28T08:14:23;3.60;;;3.30;;
10725;SDS011;5414;59.782;16.378;2022-09-28T08:16:51;3.33;;;2.93;;
10725;SDS011;5414;59.782;16.378;2022-09-28T08:19:17;3.80;;;3.37;;
10725;SDS011;5414;59.782;16.378;2022-09-28T08:21:44;6.13;;;3.07;;
10725;SDS011;5414;59.782;16.378;2022-09-28T08:24:11;4.50;;;3.43;;
10725;SDS011;5414;59.782;16.378;2022-09-28T08:26:37;3.73;;;3.10;;
10725;SDS011;5414;59.782;16.378;2022-09-28T08:29:03;6.20;;;3.50;;
10725;SDS011;5414;59.782;16.378;2022-09-28T08:31:30;3.30;;;3.00;;
10725;SDS011;5414;59.782;16.378;2022-09-28T08:33:56;3.73;;;3.00;;
10725;SDS011;5414;59.782;16.378;2022-09-28T08:36:22;4.20;;;2.87;;
10725;SDS011;5414;59.782;16.378;2022-09-28T08:38:49;3.10;;;2.80;;
10725;SDS011;5414;59.782;16.378;2022-09-28T08:41:26;3.07;;;2.47;;
10725;SDS011;5414;59.782;16.378;2022-09-28T08:46:34;4.07;;;2.60;;
10725;SDS011;5414;59.782;16.378;2022-09-28T08:49:05;2.83;;;2.63;;
10725;SDS011;5414;59.782;16.378;2022-09-28T08:51:50;3.97;;;2.60;;
10725;SDS011;5414;59.782;16.378;2022-09-28T08:55:03;2.67;;;2.37;;
10725;SDS011;5414;59.782;16.378;2022-09-28T08:57:13;3.87;;;2.53;;
10725;SDS011;5414;59.782;16.378;2022-09-28T09:04:44;3.70;;;2.40;;
10725;SDS011;5414;59.782;16.378;2022-09-28T09:25:02;2.70;;;2.20;;
10725;SDS011;5414;59.782;16.378;2022-09-28T09:30:16;2.90;;;2.27;;
10725;SDS011;5414;59.782;16.378;2022-09-28T09:50:58;2.40;;;2.20;;
10725;SDS011;5414;59.782;16.378;2022-09-28T09:56:03;4.23;;;2.13;;
10725;SDS011;5414;59.782;16.378;2022-09-28T09:58:33;2.93;;;2.43;;
10725;SDS011;5414;59.782;16.378;2022-09-28T10:01:07;3.57;;;2.10;;
10725;SDS011;5414;59.782;16.378;2022-09-28T10:03:33;2.60;;;2.20;;
10725;SDS011;5414;59.782;16.378;2022-09-28T10:06:08;2.37;;;2.10;;
10725;SDS011;5414;59.782;16.378;2022-09-28T10:08:38;3.37;;;2.10;;
10725;SDS011;5414;59.782;16.378;2022-09-28T10:11:10;4.00;;;2.23;;
10725;SDS011;5414;59.782;16.378;2022-09-28T10:13:38;5.87;;;2.30;;
10725;SDS011;5414;59.782;16.378;2022-09-28T10:16:05;3.50;;;2.00;;
10725;SDS011;5414;59.782;16.378;2022-09-28T10:18:31;2.33;;;2.10;;
10725;SDS011;5414;59.782;16.378;2022-09-28T10:20:59;2.83;;;1.90;;
10725;SDS011;5414;59.782;16.378;2022-09-28T10:23:26;2.10;;;1.97;;
10725;SDS011;5414;59.782;16.378;2022-09-28T10:25:53;2.37;;;1.80;;
10725;SDS011;5414;59.782;16.378;2022-09-28T10:28:25;3.00;;;2.23;;
10725;SDS011;5414;59.782;16.378;2022-09-28T10:30:54;2.23;;;1.90;;
10725;SDS011;5414;59.782;16.378;2022-09-28T10:33:28;3.20;;;2.20;;
10725;SDS011;5414;59.782;16.378;2022-09-28T10:35:54;3.07;;;2.07;;
10725;SDS011;5414;59.782;16.378;2022-09-28T10:38:20;2.90;;;1.90;;
10725;SDS011;5414;59.782;16.378;2022-09-28T10:40:48;1.83;;;1.60;;
10725;SDS011;5414;59.782;16.378;2022-09-28T10:43:19;3.17;;;1.50;;
10725;SDS011;5414;59.782;16.378;2022-09-28T10:45:58;1.87;;;1.70;;
10725;SDS011;5414;59.782;16.378;2022-09-28T10:48:25;3.23;;;1.73;;
10725;SDS011;5414;59.782;16.378;2022-09-28T10:51:02;2.17;;;1.77;;
10725;SDS011;5414;59.782;16.378;2022-09-28T10:53:29;5.03;;;1.67;;
10725;SDS011;5414;59.782;16.378;2022-09-28T10:56:00;2.83;;;1.90;;
10725;SDS011;5414;59.782;16.378;2022-09-28T10:58:39;2.47;;;1.53;;
10725;SDS011;5414;59.782;16.378;2022-09-28T11:01:25;1.90;;;1.70;;
10725;SDS011;5414;59.782;16.378;2022-09-28T11:03:59;2.67;;;1.70;;
10725;SDS011;5414;59.782;16.378;2022-09-28T11:06:26;2.00;;;1.80;;
10725;SDS011;5414;59.782;16.378;2022-09-28T11:08:54;2.53;;;1.90;;
10725;SDS011;5414;59.782;16.378;2022-09-28T11:11:21;1.90;;;1.70;;
10725;SDS011;5414;59.782;16.378;2022-09-28T11:18:46;2.07;;;1.63;;
10725;SDS011;5414;59.782;16.378;2022-09-28T11:21:14;1.70;;;1.57;;
10725;SDS011;5414;59.782;16.378;2022-09-28T11:23:41;2.10;;;1.40;;
10725;SDS011;5414;59.782;16.378;2022-09-28T11:26:19;2.77;;;1.53;;
10725;SDS011;5414;59.782;16.378;2022-09-28T11:28:49;2.50;;;1.63;;
10725;SDS011;5414;59.782;16.378;2022-09-28T11:31:16;2.63;;;1.90;;
10725;SDS011;5414;59.782;16.378;2022-09-28T11:33:49;2.77;;;1.80;;
10725;SDS011;5414;59.782;16.378;2022-09-28T11:36:20;2.20;;;1.70;;
10725;SDS011;5414;59.782;16.378;2022-09-28T11:39:07;2.47;;;1.50;;
10725;SDS011;5414;59.782;16.378;2022-09-28T11:41:47;2.07;;;1.70;;
10725;SDS011;5414;59.782;16.378;2022-09-28T11:49:51;2.80;;;1.70;;
10725;SDS011;5414;59.782;16.378;2022-09-28T11:55:33;1.73;;;1.50;;
10725;SDS011;5414;59.782;16.378;2022-09-28T11:57:36;2.87;;;1.70;;
10725;SDS011;5414;59.782;16.378;2022-09-28T12:02:36;1.70;;;1.43;;
10725;SDS011;5414;59.782;16.378;2022-09-28T12:07:43;2.10;;;1.50;;
10725;SDS011;5414;59.782;16.378;2022-09-28T12:10:15;3.50;;;1.70;;
10725;SDS011;5414;59.782;16.378;2022-09-28T12:13:08;1.90;;;1.60;;
10725;SDS011;5414;59.782;16.378;2022-09-28T12:15:46;2.10;;;1.60;;
10725;SDS011;5414;59.782;16.378;2022-09-28T12:18:17;2.17;;;1.40;;
10725;SDS011;5414;59.782;16.378;2022-09-28T12:20:46;1.80;;;1.40;;
10725;SDS011;5414;59.782;16.378;2022-09-28T12:23:25;1.97;;;1.43;;
10725;SDS011;5414;59.782;16.378;2022-09-28T12:26:01;1.60;;;1.50;;
10725;SDS011;5414;59.782;16.378;2022-09-28T12:28:33;2.10;;;1.90;;
10725;SDS011;5414;59.782;16.378;2022-09-28T12:31:06;2.10;;;1.47;;
10725;SDS011;5414;59.782;16.378;2022-09-28T12:33:34;2.57;;;1.50;;
10725;SDS011;5414;59.782;16.378;2022-09-28T12:36:03;1.80;;;1.60;;
10725;SDS011;5414;59.782;16.378;2022-09-28T12:41:03;1.90;;;1.50;;
10725;SDS011;5414;59.782;16.378;2022-09-28T12:43:57;2.40;;;1.40;;
10725;SDS011;5414;59.782;16.378;2022-09-28T12:51:27;1.80;;;1.40;;
10725;SDS011;5414;59.782;16.378;2022-09-28T12:59:29;1.40;;;1.30;;
10725;SDS011;5414;59.782;16.378;2022-09-28T13:17:35;1.60;;;1.30;;
10725;SDS011;5414;59.782;16.378;2022-09-28T13:22:31;2.10;;;1.20;;
10725;SDS011;5414;59.782;16.378;2022-09-28T13:25:02;1.50;;;1.40;;
10725;SDS011;5414;59.782;16.378;2022-09-28T13:27:33;1.57;;;1.23;;
10725;SDS011;5414;59.782;16.378;2022-09-28T13:30:00;1.40;;;1.30;;
10725;SDS011;5414;59.782;16.378;2022-09-28T13:32:27;1.50;;;1.40;;
10725;SDS011;5414;59.782;16.378;2022-09-28T13:34:55;1.93;;;1.10;;
10725;SDS011;5414;59.782;16.378;2022-09-28T13:37:23;1.70;;;1.43;;
10725;SDS011;5414;59.782;16.378;2022-09-28T13:39:59;1.40;;;1.30;;
10725;SDS011;5414;59.782;16.378;2022-09-28T13:50:40;1.73;;;1.40;;
10725;SDS011;5414;59.782;16.378;2022-09-28T14:06:03;2.97;;;1.40;;
10725;SDS011;5414;59.782;16.378;2022-09-28T14:08:42;1.67;;;1.33;;
10725;SDS011;5414;59.782;16.378;2022-09-28T14:11:44;2.53;;;1.33;;
10725;SDS011;5414;59.782;16.378;2022-09-28T14:14:04;3.37;;;1.60;;
10725;SDS011;5414;59.782;16.378;2022-09-28T14:16:31;1.40;;;1.30;;
10725;SDS011;5414;59.782;16.378;2022-09-28T14:29:35;1.87;;;1.50;;
10725;SDS011;5414;59.782;16.378;2022-09-28T14:34:35;2.47;;;1.60;;
10725;SDS011;5414;59.782;16.378;2022-09-28T14:37:05;1.73;;;1.40;;
10725;SDS011;5414;59.782;16.378;2022-09-28T14:40:07;1.40;;;1.30;;
10725;SDS011;5414;59.782;16.378;2022-09-28T14:45:40;1.37;;;1.27;;
10725;SDS011;5414;59.782;16.378;2022-09-28T14:50:35;1.77;;;1.50;;
10725;SDS011;5414;59.782;16.378;2022-09-28T14:53:05;2.10;;;1.60;;
10725;SDS011;5414;59.782;16.378;2022-09-28T14:55:40;1.77;;;1.40;;
10725;SDS011;5414;59.782;16.378;2022-09-28T14:58:07;1.60;;;1.50;;
10725;SDS011;5414;59.782;16.378;2022-09-28T15:00:40;2.23;;;1.70;;
10725;SDS011;5414;59.782;16.378;2022-09-28T15:03:08;2.27;;;1.80;;
10725;SDS011;5414;59.782;16.378;2022-09-28T15:05:42;1.97;;;1.60;;
10725;SDS011;5414;59.782;16.378;2022-09-28T15:08:09;1.90;;;1.50;;
10725;SDS011;5414;59.782;16.378;2022-09-28T15:10:36;2.83;;;1.50;;
10725;SDS011;5414;59.782;16.378;2022-09-28T15:13:15;3.00;;;1.50;;
10725;SDS011;5414;59.782;16.378;2022-09-28T15:15:45;1.80;;;1.40;;
10725;SDS011;5414;59.782;16.378;2022-09-28T15:20:46;3.43;;;1.57;;
10725;SDS011;5414;59.782;16.378;2022-09-28T15:23:23;1.60;;;1.50;;
10725;SDS011;5414;59.782;16.378;2022-09-28T15:25:51;2.33;;;1.40;;
10725;SDS011;5414;59.782;16.378;2022-09-28T15:28:17;1.70;;;1.60;;
10725;SDS011;5414;59.782;16.378;2022-09-28T15:30:46;2.00;;;1.60;;
10725;SDS011;5414;59.782;16.378;2022-09-28T15:36:29;1.70;;;1.50;;
10725;SDS011;5414;59.782;16.378;2022-09-28T15:38:58;3.50;;;1.70;;
10725;SDS011;5414;59.782;16.378;2022-09-28T15:41:26;2.63;;;1.70;;
10725;SDS011;5414;59.782;16.378;2022-09-28T15:46:47;1.73;;;1.60;;
10725;SDS011;5414;59.782;16.378;2022-09-28T15:49:28;1.70;;;1.50;;
10725;SDS011;5414;59.782;16.378;2022-09-28T15:51:57;1.80;;;1.70;;
10725;SDS011;5414;59.782;16.378;2022-09-28T15:54:26;3.17;;;1.53;;
10725;SDS011;5414;59.782;16.378;2022-09-28T15:56:59;1.77;;;1.67;;
10725;SDS011;5414;59.782;16.378;2022-09-28T15:59:33;1.77;;;1.60;;
10725;SDS011;5414;59.782;16.378;2022-09-28T16:04:42;1.70;;;1.40;;
10725;SDS011;5414;59.782;16.378;2022-09-28T16:12:30;2.10;;;1.90;;
10725;SDS011;5414;59.782;16.378;2022-09-28T16:14:58;3.30;;;1.90;;
10725;SDS011;5414;59.782;16.378;2022-09-28T16:17:30;1.80;;;1.70;;
10725;SDS011;5414;59.782;16.378;2022-09-28T16:20:00;2.00;;;1.80;;
10725;SDS011;5414;59.782;16.378;2022-09-28T16:22:27;2.70;;;1.93;;
10725;SDS011;5414;59.782;16.378;2022-09-28T16:24:56;2.63;;;1.80;;
10725;SDS011;5414;59.782;16.378;2022-09-28T16:27:29;2.13;;;1.50;;
10725;SDS011;5414;59.782;16.378;2022-09-28T16:30:15;2.00;;;1.80;;
10725;SDS011;5414;59.782;16.378;2022-09-28T16:33:07;2.13;;;1.60;;
10725;SDS011;5414;59.782;16.378;2022-09-28T16:38:00;2.10;;;1.90;;
10725;SDS011;5414;59.782;16.378;2022-09-28T16:40:27;2.60;;;1.97;;
10725;SDS011;5414;59.782;16.378;2022-09-28T16:42:56;2.70;;;2.10;;
10725;SDS011;5414;59.782;16.378;2022-09-28T16:45:23;2.20;;;2.00;;
10725;SDS011;5414;59.782;16.378;2022-09-28T16:47:49;2.03;;;1.80;;
10725;SDS011;5414;59.782;16.378;2022-09-28T16:50:17;3.40;;;2.20;;
10725;SDS011;5414;59.782;16.378;2022-09-28T16:52:43;2.33;;;1.80;;
10725;SDS011;5414;59.782;16.378;2022-09-28T16:55:28;3.77;;;2.20;;
10725;SDS011;5414;59.782;16.378;2022-09-28T16:57:54;2.17;;;2.00;;
10725;SDS011;5414;59.782;16.378;2022-09-28T17:00:21;3.03;;;2.07;;
10725;SDS011;5414;59.782;16.378;2022-09-28T17:02:48;2.30;;;2.10;;
10725;SDS011;5414;59.782;16.378;2022-09-28T17:05:15;2.80;;;1.90;;
10725;SDS011;5414;59.782;16.378;2022-09-28T17:07:42;2.30;;;2.10;;
10725;SDS011;5414;59.782;16.378;2022-09-28T17:10:54;2.20;;;1.90;;
10725;SDS011;5414;59.782;16.378;2022-09-28T17:12:56;2.43;;;2.23;;
10725;SDS011;5414;59.782;16.378;2022-09-28T17:15:23;2.37;;;2.17;;
10725;SDS011;5414;59.782;16.378;2022-09-28T17:17:50;3.47;;;2.20;;
10725;SDS011;5414;59.782;16.378;2022-09-28T17:20:19;4.50;;;2.30;;
10725;SDS011;5414;59.782;16.378;2022-09-28T17:22:47;2.30;;;2.10;;
10725;SDS011;5414;59.782;16.378;2022-09-28T17:25:13;2.63;;;2.20;;
10725;SDS011;5414;59.782;16.378;2022-09-28T17:27:40;2.80;;;2.50;;
10725;SDS011;5414;59.782;16.378;2022-09-28T17:30:07;2.77;;;2.57;;
10725;SDS011;5414;59.782;16.378;2022-09-28T17:32:35;3.67;;;2.67;;
10725;SDS011;5414;59.782;16.378;2022-09-28T17:35:02;3.23;;;2.43;;
10725;SDS011;5414;59.782;16.378;2022-09-28T17:37:29;4.13;;;2.70;;
10725;SDS011;5414;59.782;16.378;2022-09-28T17:39:58;5.33;;;2.60;;
10725;SDS011;5414;59.782;16.378;2022-09-28T17:42:24;3.43;;;2.57;;
10725;SDS011;5414;59.782;16.378;2022-09-28T17:44:50;3.10;;;2.77;;
10725;SDS011;5414;59.782;16.378;2022-09-28T17:47:16;3.20;;;2.67;;
10725;SDS011;5414;59.782;16.378;2022-09-28T17:49:42;3.53;;;2.83;;
10725;SDS011;5414;59.782;16.378;2022-09-28T17:52:09;2.47;;;2.27;;
10725;SDS011;5414;59.782;16.378;2022-09-28T17:54:35;4.50;;;2.77;;
10725;SDS011;5414;59.782;16.378;2022-09-28T17:57:02;4.20;;;2.90;;
10725;SDS011;5414;59.782;16.378;2022-09-28T17:59:28;5.07;;;2.93;;
10725;SDS011;5414;59.782;16.378;2022-09-28T18:01:55;2.80;;;2.60;;
10725;SDS011;5414;59.782;16.378;2022-09-28T18:04:21;3.53;;;2.77;;
10725;SDS011;5414;59.782;16.378;2022-09-28T18:06:47;4.30;;;3.00;;
10725;SDS011;5414;59.782;16.378;2022-09-28T18:09:16;3.23;;;2.67;;
10725;SDS011;5414;59.782;16.378;2022-09-28T18:11:48;3.17;;;2.77;;
10725;SDS011;5414;59.782;16.378;2022-09-28T18:14:16;3.97;;;3.40;;